Time;durP1;ratioP1;P1;durP2;ratioP2;P2;SDS_P1;SDS_P2;PMS_P1;PMS_P2;Temp;Humidity;BMP_temperature;BMP_pressure;BME280_temperature;BME280_humidity;BME280_pressure;Samples;Min_cycle;Max_cycle;Signal;HPM_P1;HPM_P2
2023/10/30 00:02:12;;;;;;;5.82;1.50;;;;;;;19.81;50.31;99753.81;16110932;19;130830;-39
2023/10/30 00:07:34;;;;;;;7.40;1.50;;;;;;;19.79;49.95;99772.69;16107120;19;130366;-39
2023/10/30 00:12:56;;;;;;;6.03;1.50;;;;;;;19.77;50.37;99774.09;16113016;19;130528;-39
2023/10/30 00:18:18;;;;;;;5.53;1.33;;;;;;;19.74;50.28;99788.53;16112413;19;131012;-40
2023/10/30 00:23:40;;;;;;;7.43;1.45;;;;;;;19.71;50.41;99797.41;16107248;19;130435;-40
2023/10/30 00:29:03;;;;;;;6.60;1.38;;;;;;;19.68;50.01;99796.88;16107369;19;130893;-39
2023/10/30 00:34:25;;;;;;;4.60;1.30;;;;;;;19.66;50.37;99801.88;16109448;19;130469;-39
2023/10/30 00:39:48;;;;;;;7.10;1.38;;;;;;;19.65;50.13;99821.56;16107959;19;130568;-40
2023/10/30 00:45:10;;;;;;;3.40;1.40;;;;;;;19.62;49.94;99825.72;16100757;19;130606;-42
2023/10/30 00:50:32;;;;;;;5.28;1.60;;;;;;;19.60;50.17;99839.06;16107761;19;130696;-39
2023/10/30 00:55:54;;;;;;;5.85;1.40;;;;;;;19.58;50.37;99832.94;16104111;19;130584;-39
2023/10/30 01:01:17;;;;;;;4.13;1.20;;;;;;;19.56;50.17;99835.19;16102574;19;131214;-39
2023/10/30 01:06:39;;;;;;;4.03;1.20;;;;;;;19.53;50.14;99849.63;16100957;19;131166;-39
2023/10/30 01:12:01;;;;;;;4.70;1.38;;;;;;;19.52;50.05;99850.72;16107179;19;129822;-39
2023/10/30 01:17:22;;;;;;;3.22;1.23;;;;;;;19.49;49.79;99846.56;16107687;19;131023;-39
2023/10/30 01:22:45;;;;;;;4.15;1.35;;;;;;;19.47;50.33;99853.47;16101519;19;129521;-39
2023/10/30 01:28:06;;;;;;;3.47;1.20;;;;;;;19.46;49.81;99862.91;16106797;19;131418;-39
2023/10/30 01:33:28;;;;;;;5.95;1.60;;;;;;;19.44;50.27;99865.16;16107191;19;130080;-39
2023/10/30 01:38:52;;;;;;;3.03;1.02;;;;;;;19.43;50.19;99857.94;16100906;19;134817;-39
2023/10/30 01:44:14;;;;;;;4.35;1.40;;;;;;;19.40;50.09;99866.81;16103011;19;130265;-40
2023/10/30 01:49:36;;;;;;;3.42;1.00;;;;;;;19.39;49.71;99857.66;16099767;19;131024;-39
2023/10/30 01:54:58;;;;;;;5.00;1.40;;;;;;;19.37;49.94;99863.47;16099351;19;130797;-40
2023/10/30 02:00:20;;;;;;;4.80;1.33;;;;;;;19.34;49.67;99864.03;16105702;19;130680;-39
2023/10/30 02:05:42;;;;;;;5.37;1.47;;;;;;;19.33;49.96;99854.03;16101244;19;129641;-39
2023/10/30 02:11:05;;;;;;;4.35;1.15;;;;;;;19.33;50.04;99856.00;16100511;19;129716;-39
2023/10/30 02:16:26;;;;;;;5.68;1.20;;;;;;;19.31;49.86;99856.28;16100837;19;130081;-40
2023/10/30 02:21:51;;;;;;;4.40;0.93;;;;;;;19.30;49.53;99849.06;16102874;19;129972;-39
2023/10/30 02:27:13;;;;;;;5.63;1.08;;;;;;;19.29;50.05;99864.03;16102412;19;130440;-39
2023/10/30 02:32:35;;;;;;;5.88;1.35;;;;;;;19.28;49.75;99858.75;16106624;19;131139;-39
2023/10/30 02:37:57;;;;;;;4.13;1.38;;;;;;;19.26;49.66;99858.22;16117290;19;130897;-40
2023/10/30 02:43:19;;;;;;;5.07;1.10;;;;;;;19.25;50.11;99856.56;16115667;19;131278;-39
2023/10/30 02:48:41;;;;;;;1.80;0.75;;;;;;;19.22;49.68;99850.44;16114924;19;131053;-40
2023/10/30 02:54:03;;;;;;;4.45;1.17;;;;;;;19.24;50.08;99857.66;16110438;19;130620;-39
2023/10/30 02:59:25;;;;;;;4.53;1.30;;;;;;;19.20;49.69;99858.19;16109099;19;130407;-39
2023/10/30 03:04:47;;;;;;;4.18;1.38;;;;;;;19.20;50.06;99857.34;16112565;19;129296;-39
2023/10/30 03:10:09;;;;;;;5.82;1.35;;;;;;;19.18;50.07;99857.63;16110904;19;132042;-40
2023/10/30 03:15:31;;;;;;;4.00;1.20;;;;;;;19.17;49.94;99861.50;16099335;19;130752;-39
2023/10/30 03:20:54;;;;;;;4.78;1.73;;;;;;;19.15;49.89;99858.16;16114167;19;130963;-40
2023/10/30 03:26:16;;;;;;;6.10;1.40;;;;;;;19.15;49.78;99868.44;16111432;19;130054;-39
2023/10/30 03:31:38;;;;;;;6.78;1.10;;;;;;;19.14;50.12;99864.81;16114248;19;135365;-39
2023/10/30 03:37:00;;;;;;;3.85;1.15;;;;;;;19.13;49.76;99865.94;16105866;19;129817;-39
2023/10/30 03:42:22;;;;;;;3.42;1.02;;;;;;;19.13;49.76;99862.31;16103891;19;130662;-39
2023/10/30 03:47:45;;;;;;;3.08;1.13;;;;;;;19.12;49.77;99847.66;16107401;19;130953;-39
2023/10/30 03:53:07;;;;;;;4.70;1.10;;;;;;;19.12;49.67;99852.34;16107443;19;130673;-40
2023/10/30 03:58:29;;;;;;;3.95;1.00;;;;;;;19.09;50.17;99837.09;16108503;19;129914;-39
2023/10/30 04:03:51;;;;;;;2.58;0.93;;;;;;;19.09;49.79;99848.19;16112421;19;131309;-39
2023/10/30 04:09:13;;;;;;;2.75;0.90;;;;;;;19.10;49.74;99857.31;16111478;19;134446;-40
2023/10/30 04:14:35;;;;;;;2.90;1.10;;;;;;;19.08;50.17;99868.69;16107870;19;130019;-39
2023/10/30 04:19:57;;;;;;;4.18;1.45;;;;;;;19.07;49.77;99867.88;16108364;19;130839;-39
2023/10/30 04:25:20;;;;;;;2.13;1.00;;;;;;;19.06;49.76;99868.13;16110872;19;129940;-39
2023/10/30 04:30:41;;;;;;;3.40;0.90;;;;;;;19.04;50.16;99865.66;16108551;19;131120;-39
2023/10/30 04:36:04;;;;;;;3.65;1.13;;;;;;;19.04;49.91;99862.03;16112285;19;129960;-40
2023/10/30 04:41:26;;;;;;;3.15;0.88;;;;;;;19.02;50.20;99851.22;16110418;19;131287;-39
2023/10/30 04:46:48;;;;;;;6.35;1.00;;;;;;;19.02;50.25;99853.16;16105723;19;129868;-39
2023/10/30 04:52:10;;;;;;;2.47;0.90;;;;;;;19.01;50.14;99845.97;16108843;19;131445;-39
2023/10/30 04:57:32;;;;;;;6.32;1.15;;;;;;;18.99;50.17;99849.00;16102120;19;131654;-40
2023/10/30 05:02:54;;;;;;;3.30;0.90;;;;;;;18.99;50.05;99846.22;16105165;19;134231;-40
2023/10/30 05:08:17;;;;;;;2.67;0.93;;;;;;;18.96;50.09;99843.19;16109661;19;130475;-39
2023/10/30 05:13:39;;;;;;;6.38;1.40;;;;;;;18.96;49.90;99837.63;16108041;19;129731;-39
2023/10/30 05:19:01;;;;;;;2.55;1.02;;;;;;;18.95;49.96;99842.38;16103081;19;131234;-41
2023/10/30 05:24:23;;;;;;;2.47;1.00;;;;;;;18.94;50.25;99835.16;16108244;19;129852;-39
2023/10/30 05:29:45;;;;;;;1.90;0.65;;;;;;;18.94;50.44;99837.94;16098922;19;130987;-40
2023/10/30 05:35:07;;;;;;;3.28;1.00;;;;;;;;;;16101841;19;130736;-39
2023/10/30 05:40:29;;;;;;;2.45;0.75;;;;;;;18.92;50.11;99837.38;16100726;19;129504;-39
2023/10/30 05:45:51;;;;;;;3.08;1.17;;;;;;;18.90;49.98;99831.25;16099893;19;129940;-39
2023/10/30 05:51:13;;;;;;;2.75;0.90;;;;;;;18.89;50.35;99840.69;16099655;19;130374;-39
2023/10/30 05:56:35;;;;;;;2.70;1.02;;;;;;;18.89;50.22;99843.44;16100971;19;131038;-40
2023/10/30 06:01:57;;;;;;;2.33;0.80;;;;;;;18.87;50.42;99834.56;16103194;19;130825;-39
2023/10/30 06:07:19;;;;;;;3.60;0.80;;;;;;;18.87;50.39;99826.25;16101325;19;130426;-39
2023/10/30 06:12:41;;;;;;;3.28;1.00;;;;;;;18.86;50.43;99841.22;16100066;19;130957;-39
2023/10/30 06:18:03;;;;;;;5.78;1.08;;;;;;;18.84;49.74;99835.97;16096341;19;131699;-39
2023/10/30 06:23:25;;;;;;;8.40;1.38;;;;;;;18.88;49.68;99833.47;16093702;19;130199;-39
2023/10/30 06:28:47;;;;;;;10.00;1.15;;;;;;;18.94;49.46;99846.25;16097828;19;131006;-39
2023/10/30 06:34:09;;;;;;;4.90;1.42;;;;;;;18.97;48.99;99844.84;16097148;19;130319;-39
2023/10/30 06:39:31;;;;;;;4.38;1.10;;;;;;;18.97;49.44;99844.84;16098668;19;130497;-39
2023/10/30 06:44:53;;;;;;;5.78;1.45;;;;;;;18.96;49.08;99848.72;16096399;19;131048;-39
2023/10/30 06:50:15;;;;;;;8.75;1.50;;;;;;;18.95;48.88;99850.69;16098396;19;130537;-40
2023/10/30 06:55:39;;;;;;;7.32;1.30;;;;;;;18.93;49.14;99861.19;16098674;19;130407;-39
2023/10/30 07:01:02;;;;;;;4.35;1.02;;;;;;;18.90;49.33;99878.38;16094144;19;130935;-39
2023/10/30 07:06:25;;;;;;;6.80;1.23;;;;;;;18.89;49.65;99893.34;16090644;19;129730;-39
2023/10/30 07:11:47;;;;;;;3.70;0.70;;;;;;;18.88;49.54;99891.66;16090992;19;130856;-39
2023/10/30 07:17:09;;;;;;;3.30;1.00;;;;;;;18.87;49.07;99895.53;16094681;19;132017;-39
2023/10/30 07:22:31;;;;;;;7.68;1.50;;;;;;;18.84;49.49;99877.53;16114679;19;130979;-39
2023/10/30 07:27:53;;;;;;;4.50;1.10;;;;;;;18.84;49.51;99887.75;16117057;19;130630;-39
2023/10/30 07:33:15;;;;;;;5.53;1.20;;;;;;;18.82;49.16;99899.13;16112098;19;131114;-39
2023/10/30 07:38:37;;;;;;;4.88;0.88;;;;;;;18.80;49.19;99892.22;16113398;19;129735;-39
2023/10/30 07:43:59;;;;;;;4.90;1.08;;;;;;;18.79;49.02;99902.44;16114432;19;135121;-39
2023/10/30 07:49:21;;;;;;;6.15;1.33;;;;;;;18.75;47.96;99918.78;16114492;19;129638;-40
2023/10/30 07:54:43;;;;;;;5.50;1.50;;;;;;;18.72;47.61;99926.81;16115168;19;129522;-39
2023/10/30 08:00:07;;;;;;;8.30;1.60;;;;;;;18.67;46.42;99930.41;16104676;19;130832;-41
2023/10/30 08:05:32;;;;;;;11.07;1.83;;;;;;;18.65;46.51;99921.53;16110478;19;131284;-41
2023/10/30 08:10:54;;;;;;;6.97;1.57;;;;;;;18.71;45.90;99931.50;16107106;19;131905;-39
2023/10/30 08:16:16;;;;;;;7.60;1.58;;;;;;;18.86;46.01;99927.13;16113444;19;129984;-41
2023/10/30 08:21:38;;;;;;;11.00;1.80;;;;;;;19.00;45.69;99931.06;16112487;19;130727;-40
2023/10/30 08:27:00;;;;;;;6.57;1.50;;;;;;;19.10;45.91;99929.41;16112886;19;129726;-40
2023/10/30 08:32:22;;;;;;;10.38;1.52;;;;;;;19.16;45.76;99931.91;16106749;19;130496;-40
2023/10/30 08:37:44;;;;;;;5.25;1.30;;;;;;;19.18;45.54;99939.97;16111982;19;131069;-40
2023/10/30 08:43:06;;;;;;;4.95;1.52;;;;;;;19.18;46.01;99940.78;16107946;19;131093;-42
2023/10/30 08:48:28;;;;;;;6.78;1.13;;;;;;;19.19;45.66;99938.88;16107578;19;130304;-40
2023/10/30 08:53:51;;;;;;;5.70;1.30;;;;;;;19.16;46.04;99934.69;16113859;19;131460;-40
2023/10/30 08:59:13;;;;;;;10.20;1.85;;;;;;;19.17;45.81;99924.44;16113293;19;131404;-40
2023/10/30 09:04:36;;;;;;;5.38;1.17;;;;;;;19.19;46.25;99928.59;16105187;19;131842;-41
2023/10/30 09:09:58;;;;;;;7.75;1.60;;;;;;;19.19;46.27;99930.56;16113877;19;129733;-40
2023/10/30 09:15:20;;;;;;;7.60;1.50;;;;;;;19.16;45.80;99934.69;16103722;19;130586;-40
2023/10/30 09:20:42;;;;;;;8.95;1.58;;;;;;;19.14;46.12;99934.13;16109472;19;129247;-44
2023/10/30 09:26:04;;;;;;;8.82;1.42;;;;;;;19.13;46.14;99932.47;16115731;19;129558;-40
2023/10/30 09:31:30;;;;;;;10.13;1.67;;;;;;;19.12;46.12;99924.41;16098521;19;130975;-39
2023/10/30 09:36:52;;;;;;;26.20;2.05;;;;;;;19.09;46.10;99917.50;16096784;19;130088;-38
2023/10/30 09:42:14;;;;;;;25.92;2.75;;;;;;;19.12;46.50;99905.00;16101877;19;131603;-38
2023/10/30 09:47:36;;;;;;;50.65;4.03;;;;;;;19.16;46.58;99895.88;16106598;19;129904;-39
2023/10/30 09:52:59;;;;;;;36.05;2.92;;;;;;;19.20;46.81;99902.53;16105275;19;130165;-38
2023/10/30 09:58:25;;;;;;;24.42;2.70;;;;;;;19.24;46.90;99899.25;16103692;19;130669;-38
2023/10/30 10:03:47;;;;;;;30.50;3.17;;;;;;;19.25;46.71;99901.75;16103172;19;131261;-39
2023/10/30 10:09:10;;;;;;;47.03;5.32;;;;;;;19.27;47.29;99899.53;16102131;19;130562;-39
2023/10/30 10:14:32;;;;;;;30.40;2.63;;;;;;;19.29;47.46;99897.31;16104156;19;130558;-39
2023/10/30 10:19:54;;;;;;;34.30;3.63;;;;;;;19.31;47.44;99914.53;16101998;19;129801;-39
2023/10/30 10:25:18;;;;;;;33.03;3.70;;;;;;;19.34;47.66;99896.50;16106549;19;130409;-41
2023/10/30 10:30:40;;;;;;;45.47;4.07;;;;;;;19.35;47.86;99896.19;16097223;19;131412;-39
2023/10/30 10:36:04;;;;;;;28.75;3.17;;;;;;;19.37;47.58;99882.91;16102222;19;129481;-38
2023/10/30 10:41:27;;;;;;;30.45;3.17;;;;;;;19.41;47.75;99871.25;16101064;19;130167;-38
2023/10/30 10:46:54;;;;;;;24.45;2.75;;;;;;;19.45;48.07;99870.41;16103371;19;129425;-39
2023/10/30 10:52:19;;;;;;;88.57;6.22;;;;;;;19.47;47.92;99872.91;16105594;19;130798;-39
2023/10/30 10:57:51;;;;;;;43.25;5.10;;;;;;;19.48;48.50;99864.31;16119439;19;130151;-39
2023/10/30 11:03:14;;;;;;;50.55;4.53;;;;;;;19.50;48.65;99861.25;16115043;19;131185;-39
2023/10/30 11:08:44;;;;;;;40.72;4.30;;;;;;;19.52;48.34;99842.41;16116297;19;130134;-40
2023/10/30 11:14:22;;;;;;;31.00;3.42;;;;;;;19.55;48.74;99844.63;16109467;19;131109;-40
2023/10/30 11:19:45;;;;;;;29.75;3.10;;;;;;;19.52;48.62;99834.91;16118048;19;131737;-40
2023/10/30 11:25:42;;;;;;;40.30;3.80;;;;;;;19.54;49.34;99829.09;16116915;19;130324;-39
2023/10/30 11:31:08;;;;;;;;;;;;;;;19.50;49.23;99806.63;16120890;19;133984;-40
2023/10/30 11:36:34;;;;;;;46.92;4.03;;;;;;;19.54;49.31;99798.56;16119142;19;131236;-47
2023/10/30 11:41:56;;;;;;;46.33;4.57;;;;;;;19.56;49.79;99782.47;16118934;19;129064;-38
2023/10/30 11:47:24;;;;;;;34.95;4.32;;;;;;;19.58;49.63;99777.47;16118149;19;129798;-41
2023/10/30 11:52:50;;;;;;;41.92;5.88;;;;;;;19.60;50.09;99775.25;16116211;19;130220;-39
2023/10/30 11:58:12;;;;;;;57.58;5.35;;;;;;;19.60;50.13;99764.13;16109832;19;129958;-40
2023/10/30 12:03:34;;;;;;;48.35;4.30;;;;;;;19.59;50.15;99748.59;16108958;19;133342;-40
2023/10/30 12:08:56;;;;;;;48.17;5.72;;;;;;;19.63;50.34;99732.25;16113996;19;129808;-39
2023/10/30 12:14:21;;;;;;;34.55;3.53;;;;;;;19.74;50.27;99725.56;16115775;19;130915;-38
2023/10/30 12:19:43;;;;;;;;;;;;;;;19.83;50.06;99723.84;16115545;19;130556;-38
2023/10/30 12:25:06;;;;;;;56.92;5.28;;;;;;;19.95;49.87;99714.34;16116019;19;130081;-40
2023/10/30 12:30:35;;;;;;;83.25;6.45;;;;;;;20.02;50.35;99708.53;16116605;19;129558;-40
2023/10/30 12:35:57;;;;;;;55.85;5.35;;;;;;;20.02;50.37;99697.41;16110937;19;129700;-38
2023/10/30 12:41:19;;;;;;;56.85;4.47;;;;;;;19.99;50.20;99694.09;16114243;19;134387;-38
2023/10/30 12:46:41;;;;;;;73.13;6.30;;;;;;;19.98;50.46;99681.28;16112063;19;130710;-38
2023/10/30 12:52:04;;;;;;;51.75;4.43;;;;;;;20.01;50.23;99679.09;16107257;19;132598;-39
2023/10/30 12:57:27;;;;;;;48.50;3.90;;;;;;;19.99;50.64;99659.94;16108575;19;129717;-39
2023/10/30 13:02:48;;;;;;;42.80;4.53;;;;;;;19.98;50.79;99658.28;16108247;19;129747;-40
2023/10/30 13:08:10;;;;;;;36.50;3.72;;;;;;;20.03;50.85;99649.13;16104606;19;132730;-40
2023/10/30 13:13:32;;;;;;;40.40;4.40;;;;;;;20.05;51.22;99635.78;16109535;19;129505;-40
2023/10/30 13:18:54;;;;;;;60.80;5.85;;;;;;;20.07;51.18;99622.41;16108629;19;134809;-41
2023/10/30 13:24:16;;;;;;;84.47;6.75;;;;;;;20.10;51.53;99613.50;16105813;19;131514;-41
2023/10/30 13:29:38;;;;;;;63.75;6.38;;;;;;;20.14;51.59;99611.84;16111278;19;130922;-41
2023/10/30 13:35:00;;;;;;;53.47;4.97;;;;;;;20.18;50.94;99610.16;16113018;19;130134;-40
2023/10/30 13:40:22;;;;;;;48.17;3.97;;;;;;;20.19;51.06;99599.84;16107754;19;131072;-41
2023/10/30 13:45:44;;;;;;;38.05;3.95;;;;;;;20.20;51.19;99594.00;16111527;19;130455;-43
2023/10/30 13:51:06;;;;;;;24.77;3.13;;;;;;;20.19;51.39;99585.97;16110189;19;130660;-39
2023/10/30 13:56:28;;;;;;;27.98;3.10;;;;;;;20.19;51.17;99578.47;16109672;19;130576;-41
2023/10/30 14:01:50;;;;;;;29.38;3.55;;;;;;;20.22;51.10;99572.31;16105744;19;130199;-44
2023/10/30 14:07:12;;;;;;;42.83;3.63;;;;;;;20.18;51.41;99568.50;16105990;19;130938;-42
2023/10/30 14:12:34;;;;;;;50.40;4.97;;;;;;;20.16;51.58;99570.72;16105784;19;130221;-40
2023/10/30 14:17:56;;;;;;;51.40;4.30;;;;;;;20.20;51.58;99555.13;16106420;19;131068;-40
2023/10/30 14:23:19;;;;;;;53.67;5.30;;;;;;;20.23;51.82;99542.63;16103558;19;131200;-41
2023/10/30 14:28:40;;;;;;;56.70;5.43;;;;;;;20.29;51.67;99542.28;16115403;19;129638;-38
2023/10/30 14:34:02;;;;;;;47.63;3.75;;;;;;;20.33;51.62;99531.41;16118879;19;131969;-39
2023/10/30 14:39:25;;;;;;;27.60;3.10;;;;;;;20.34;51.63;99530.31;16121071;19;130560;-38
2023/10/30 14:44:47;;;;;;;31.42;3.58;;;;;;;20.33;51.80;99523.09;16122484;19;130560;-38
2023/10/30 14:50:08;;;;;;;35.05;3.75;;;;;;;20.28;51.63;99512.88;16110650;19;130491;-41
2023/10/30 14:55:30;;;;;;;28.83;2.75;;;;;;;20.29;51.70;99508.97;16114765;19;130633;-38
2023/10/30 15:00:52;;;;;;;30.45;3.88;;;;;;;20.31;51.64;99493.97;16113156;19;129784;-39
2023/10/30 15:06:14;;;;;;;27.33;2.25;;;;;;;20.29;51.75;99488.69;16112908;19;131612;-38
2023/10/30 15:11:36;;;;;;;20.08;2.42;;;;;;;20.27;51.69;99474.25;16112256;19;129783;-39
2023/10/30 15:16:58;;;;;;;17.98;2.28;;;;;;;20.25;51.97;99463.44;16118583;19;129372;-39
2023/10/30 15:22:20;;;;;;;22.70;2.33;;;;;;;20.24;52.22;99464.56;16116793;19;129288;-39
2023/10/30 15:27:42;;;;;;;23.05;2.80;;;;;;;20.25;52.27;99452.34;16114103;19;130498;-39
2023/10/30 15:33:04;;;;;;;20.50;2.65;;;;;;;20.26;52.23;99458.72;16116891;19;129850;-40
2023/10/30 15:38:27;;;;;;;26.08;2.75;;;;;;;20.26;51.89;99462.34;16117468;19;130408;-39
2023/10/30 15:43:49;;;;;;;21.00;1.85;;;;;;;20.26;52.38;99458.72;16112776;19;130402;-39
2023/10/30 15:49:11;;;;;;;15.55;1.92;;;;;;;20.27;52.36;99460.38;16117744;19;131014;-39
2023/10/30 15:54:33;;;;;;;16.00;2.08;;;;;;;20.27;52.21;99458.44;16113198;19;129781;-39
2023/10/30 16:00:15;;;;;;;70.93;4.25;;;;;;;20.26;52.27;99448.44;16118521;19;130837;-40
2023/10/30 16:05:37;;;;;;;53.47;3.88;;;;;;;20.22;52.60;99441.81;16112854;19;129667;-39
2023/10/30 16:11:01;;;;;;;139.35;7.35;;;;;;;20.24;52.81;99422.09;16118244;19;131414;-39
2023/10/30 16:16:26;;;;;;;53.30;6.07;;;;;;;20.27;52.77;99415.94;16103286;19;130970;-39
2023/10/30 16:21:49;;;;;;;35.35;3.67;;;;;;;20.27;52.46;99407.59;16104087;19;130674;-40
2023/10/30 16:27:11;;;;;;;51.38;4.20;;;;;;;20.28;52.60;99404.56;16114854;19;130795;-43
2023/10/30 16:32:33;;;;;;;38.10;3.63;;;;;;;20.35;52.50;99400.59;16109977;19;130999;-39
2023/10/30 16:37:55;;;;;;;44.03;3.38;;;;;;;20.38;52.54;99405.56;16112398;19;131147;-41
2023/10/30 16:43:17;;;;;;;55.70;4.78;;;;;;;20.38;52.53;99416.66;16113597;19;129822;-39
2023/10/30 16:48:40;;;;;;;21.30;3.03;;;;;;;20.41;52.51;99419.66;16109645;19;130818;-39
2023/10/30 16:54:02;;;;;;;32.30;3.47;;;;;;;20.42;52.22;99413.00;16108480;19;131530;-40
2023/10/30 16:59:24;;;;;;;31.27;3.13;;;;;;;20.45;52.21;99397.69;16107583;19;131671;-39
2023/10/30 17:04:46;;;;;;;42.42;4.82;;;;;;;20.48;52.07;99399.06;16109975;19;130105;-39
2023/10/30 17:10:09;;;;;;;44.88;4.22;;;;;;;20.52;52.41;99408.44;16110961;19;131510;-39
2023/10/30 17:15:30;;;;;;;35.65;4.43;;;;;;;20.53;52.39;99398.97;16107036;19;130214;-40
2023/10/30 17:20:54;;;;;;;38.45;4.38;;;;;;;20.56;52.01;99407.53;16110557;19;129011;-40
2023/10/30 17:26:16;;;;;;;33.05;4.13;;;;;;;20.57;52.39;99416.72;16108577;19;131310;-39
2023/10/30 17:31:38;;;;;;;33.88;4.00;;;;;;;20.60;52.46;99407.81;16110270;19;130734;-39
2023/10/30 17:37:00;;;;;;;35.78;4.00;;;;;;;20.63;52.53;99407.19;16108488;19;129732;-46
2023/10/30 17:42:22;;;;;;;30.02;3.78;;;;;;;20.65;52.76;99393.00;16107343;19;130633;-38
2023/10/30 17:47:44;;;;;;;35.92;4.10;;;;;;;20.73;53.24;99390.41;16107351;19;130234;-39
2023/10/30 17:53:06;;;;;;;44.25;3.40;;;;;;;20.88;53.24;99392.19;16105324;19;129420;-39
2023/10/30 17:58:28;;;;;;;39.20;3.65;;;;;;;21.05;52.97;99405.56;16107149;19;131051;-40
2023/10/30 18:03:50;;;;;;;26.13;3.63;;;;;;;21.14;52.55;99389.03;16106053;19;130410;-40
2023/10/30 18:09:12;;;;;;;24.02;2.83;;;;;;;21.22;52.94;99393.09;16103290;19;130001;-41
2023/10/30 18:14:34;;;;;;;27.35;2.97;;;;;;;21.27;52.64;99384.66;16106807;19;131142;-40
2023/10/30 18:19:58;;;;;;;49.60;4.65;;;;;;;21.30;53.11;99370.16;16107783;19;130555;-40
2023/10/30 18:25:22;;;;;;;54.95;5.07;;;;;;;21.32;52.75;99378.19;16099330;19;130178;-39
2023/10/30 18:30:44;;;;;;;97.25;6.45;;;;;;;21.30;53.36;99374.88;16103193;19;131481;-42
2023/10/30 18:36:07;;;;;;;58.95;6.82;;;;;;;21.24;52.30;99370.53;16099350;19;130893;-40
2023/10/30 18:41:29;;;;;;;54.42;6.30;;;;;;;21.21;52.55;99374.75;16099773;19;130326;-40
2023/10/30 18:46:51;;;;;;;43.78;5.57;;;;;;;21.24;52.39;99370.53;16097104;19;131801;-41
2023/10/30 18:52:13;;;;;;;43.53;5.45;;;;;;;21.28;52.12;99364.06;16101687;19;129755;-42
2023/10/30 18:57:36;;;;;;;42.78;5.30;;;;;;;21.31;52.42;99368.19;16102929;19;129840;-39
2023/10/30 19:02:58;;;;;;;60.75;5.70;;;;;;;21.31;52.57;99360.69;16095821;19;130673;-40
2023/10/30 19:08:20;;;;;;;56.17;5.85;;;;;;;21.26;53.01;99355.19;16104484;19;132045;-39
2023/10/30 19:13:42;;;;;;;46.13;4.40;;;;;;;21.25;53.01;99361.06;16100125;19;131056;-41
2023/10/30 19:19:04;;;;;;;36.83;4.05;;;;;;;21.25;52.94;99347.16;16121644;19;129621;-41
2023/10/30 19:24:26;;;;;;;43.83;4.97;;;;;;;21.30;52.91;99353.47;16117569;19;130344;-39
2023/10/30 19:29:48;;;;;;;31.98;4.55;;;;;;;21.46;52.78;99351.25;16118074;19;130683;-39
2023/10/30 19:35:10;;;;;;;30.77;4.03;;;;;;;21.67;52.56;99350.91;16116810;19;130361;-40
2023/10/30 19:40:32;;;;;;;29.58;3.75;;;;;;;21.87;52.58;99346.13;16119287;19;130731;-39
2023/10/30 19:45:54;;;;;;;22.40;3.00;;;;;;;22.05;52.14;99345.19;16117261;19;129433;-43
2023/10/30 19:51:16;;;;;;;22.95;3.67;;;;;;;22.20;52.03;99341.31;16113341;19;131860;-43
2023/10/30 19:56:38;;;;;;;20.25;3.88;;;;;;;22.35;51.51;99344.94;16114784;19;129551;-41
2023/10/30 20:02:00;;;;;;;18.23;3.30;;;;;;;22.48;51.51;99346.06;16105447;19;133436;-39
2023/10/30 20:07:22;;;;;;;22.58;3.28;;;;;;;22.55;51.66;99349.25;16109966;19;130797;-41
2023/10/30 20:12:44;;;;;;;19.73;3.28;;;;;;;22.61;51.15;99349.97;16113039;19;129787;-41
2023/10/30 20:18:05;;;;;;;16.27;2.63;;;;;;;22.56;51.18;99365.69;16114933;19;130896;-41
2023/10/30 20:23:27;;;;;;;14.15;2.60;;;;;;;22.48;51.40;99377.53;16110943;19;130175;-41
2023/10/30 20:28:49;;;;;;;20.00;2.65;;;;;;;22.38;51.52;99381.38;16109071;19;130510;-40
2023/10/30 20:34:13;;;;;;;25.27;3.08;;;;;;;22.24;51.63;99392.50;16112057;19;131235;-40
2023/10/30 20:39:35;;;;;;;19.88;2.60;;;;;;;22.11;51.98;99410.81;16114662;19;132284;-40
2023/10/30 20:44:57;;;;;;;17.23;2.70;;;;;;;22.01;52.17;99419.38;16112607;19;131823;-43
2023/10/30 20:50:19;;;;;;;16.98;2.20;;;;;;;21.88;51.98;99428.50;16113057;19;130845;-41
2023/10/30 20:55:41;;;;;;;16.13;2.53;;;;;;;21.77;51.97;99450.97;16114045;19;129668;-39
2023/10/30 21:01:03;;;;;;;11.05;2.17;;;;;;;21.69;51.90;99459.16;16102396;19;131121;-39
2023/10/30 21:06:25;;;;;;;17.08;2.40;;;;;;;21.60;52.12;99478.50;16111795;19;131100;-40
2023/10/30 21:11:47;;;;;;;12.02;2.25;;;;;;;21.49;52.05;99489.78;16108373;19;130737;-40
2023/10/30 21:17:09;;;;;;;12.52;2.03;;;;;;;21.41;51.98;99498.78;16104292;19;129479;-40
2023/10/30 21:22:31;;;;;;;10.63;2.03;;;;;;;21.35;52.07;99523.03;16106244;19;130099;-40
2023/10/30 21:27:53;;;;;;;11.93;2.10;;;;;;;21.29;52.48;99540.13;16102881;19;131711;-39
2023/10/30 21:33:15;;;;;;;8.63;1.60;;;;;;;21.21;52.11;99550.78;16103333;19;130699;-41
2023/10/30 21:38:37;;;;;;;6.63;1.40;;;;;;;21.17;52.27;99560.00;16099462;19;131146;-40
2023/10/30 21:44:00;;;;;;;10.45;1.77;;;;;;;21.10;52.15;99560.38;16111491;19;133204;-42
2023/10/30 21:49:23;;;;;;;9.90;1.95;;;;;;;21.02;52.42;99572.16;16101319;19;130640;-40
2023/10/30 21:54:46;;;;;;;8.25;1.88;;;;;;;20.95;52.57;99591.13;16103093;19;130893;-40
2023/10/30 22:00:18;;;;;;;9.13;1.40;;;;;;;20.84;52.59;99584.88;16107492;19;130053;-40
2023/10/30 22:05:40;;;;;;;5.68;1.20;;;;;;;20.75;52.61;99593.81;16107533;19;131044;-42
2023/10/30 22:11:03;;;;;;;9.02;1.55;;;;;;;20.71;52.57;99612.19;16109896;19;130343;-41
2023/10/30 22:16:24;;;;;;;4.35;1.30;;;;;;;20.65;52.60;99616.13;16108789;19;130244;-41
2023/10/30 22:21:46;;;;;;;5.63;1.40;;;;;;;20.59;52.38;99623.69;16104003;19;129970;-40
2023/10/30 22:27:08;;;;;;;6.72;1.25;;;;;;;20.55;52.48;99633.75;16103393;19;134300;-40
2023/10/30 22:32:30;;;;;;;7.13;1.55;;;;;;;20.51;52.73;99634.59;16099818;19;132117;-40
2023/10/30 22:37:52;;;;;;;5.93;1.15;;;;;;;20.47;52.82;99641.88;16102288;19;130033;-40
2023/10/30 22:43:14;;;;;;;8.55;1.05;;;;;;;20.44;52.88;99637.69;16103589;19;129470;-40
2023/10/30 22:48:36;;;;;;;8.85;1.67;;;;;;;20.39;52.59;99634.97;16106595;19;130257;-42
2023/10/30 22:53:58;;;;;;;7.00;1.20;;;;;;;20.36;52.50;99635.53;16118666;19;130667;-40
2023/10/30 22:59:20;;;;;;;4.95;1.38;;;;;;;20.32;52.77;99634.47;16118766;19;130824;-40
2023/10/30 23:04:42;;;;;;;3.22;1.10;;;;;;;20.31;52.53;99636.41;16115746;19;132623;-40
2023/10/30 23:10:05;;;;;;;4.82;1.10;;;;;;;20.27;52.96;99647.28;16113164;19;130969;-42
2023/10/30 23:15:27;;;;;;;6.05;1.08;;;;;;;20.23;52.99;99646.19;16117120;19;129715;-41
2023/10/30 23:20:49;;;;;;;2.67;1.05;;;;;;;20.20;52.95;99659.81;16105694;19;132349;-41
2023/10/30 23:26:11;;;;;;;4.40;1.10;;;;;;;20.17;52.93;99654.84;16108126;19;132650;-41
2023/10/30 23:31:33;;;;;;;5.45;1.10;;;;;;;20.14;52.80;99667.38;16116808;19;129689;-42
2023/10/30 23:36:55;;;;;;;3.35;1.10;;;;;;;20.11;53.25;99662.38;16115276;19;133335;-41
2023/10/30 23:42:17;;;;;;;5.20;0.85;;;;;;;20.08;53.17;99668.50;16115492;19;130943;-40
2023/10/30 23:47:39;;;;;;;6.72;1.00;;;;;;;20.05;53.27;99664.34;16118032;19;130459;-41
2023/10/30 23:53:01;;;;;;;5.90;1.50;;;;;;;20.03;52.78;99669.34;16116569;19;131342;-40
2023/10/30 23:58:23;;;;;;;2.63;0.80;;;;;;;20.00;52.88;99678.25;16116852;19;131605;-40
